Time;durP1;ratioP1;P1;durP2;ratioP2;P2;SDS_P1;SDS_P2;PMS_P1;PMS_P2;Temp;Humidity;BMP_temperature;BMP_pressure;BME280_temperature;BME280_humidity;BME280_pressure;Samples;Min_cycle;Max_cycle;Signal;HPM_P1;HPM_P2
2023/04/09 00:02:15;;;;;;;27.70;24.03;;;11.00;1.00;;;;;;5011175;28;20214;-93
2023/04/09 00:05:07;;;;;;;25.83;23.03;;;11.00;1.00;;;;;;5016767;28;20175;-90
2023/04/09 00:07:40;;;;;;;27.13;22.93;;;10.90;1.00;;;;;;5013332;28;20198;-90
2023/04/09 00:10:18;;;;;;;27.40;23.27;;;10.80;1.00;;;;;;5017084;28;20186;-90
2023/04/09 00:12:52;;;;;;;26.50;23.03;;;10.60;1.00;;;;;;5030252;28;20206;-90
2023/04/09 00:15:20;;;;;;;26.57;23.40;;;10.60;1.00;;;;;;5030945;28;20242;-91
2023/04/09 00:17:52;;;;;;;27.10;22.63;;;10.60;1.00;;;;;;5018104;28;20206;-91
2023/04/09 00:20:23;;;;;;;27.73;23.80;;;10.70;1.00;;;;;;5000796;28;20187;-90
2023/04/09 00:22:51;;;;;;;25.93;23.27;;;10.80;1.00;;;;;;5015892;28;20222;-90
2023/04/09 00:25:17;;;;;;;27.73;23.87;;;10.70;1.00;;;;;;5015477;28;20214;-90
2023/04/09 00:27:43;;;;;;;28.20;23.30;;;10.70;1.00;;;;;;5014809;28;20241;-91
2023/04/09 00:30:12;;;;;;;26.83;23.70;;;10.70;1.00;;;;;;5016878;28;20917;-90
2023/04/09 00:32:37;;;;;;;26.57;23.77;;;10.70;1.00;;;;;;5015215;28;20217;-89
2023/04/09 00:35:03;;;;;;;26.80;23.90;;;10.70;1.00;;;;;;5017249;28;20182;-90
2023/04/09 00:37:33;;;;;;;28.60;23.10;;;10.50;1.00;;;;;;5018432;28;20202;-89
2023/04/09 00:40:26;;;;;;;26.03;22.73;;;10.50;1.00;;;;;;5036534;28;20237;-89
2023/04/09 00:42:57;;;;;;;28.70;24.07;;;10.40;1.00;;;;;;5019028;28;20281;-89
2023/04/09 00:45:23;;;;;;;28.27;24.40;;;10.40;1.00;;;;;;5037834;28;20189;-89
2023/04/09 00:47:52;;;;;;;28.70;24.10;;;10.40;1.00;;;;;;4985406;28;20229;-91
2023/04/09 00:50:42;;;;;;;29.53;24.67;;;10.30;1.00;;;;;;5034435;28;20174;-91
2023/04/09 00:53:09;;;;;;;29.87;24.73;;;10.60;1.00;;;;;;4999656;28;20182;-90
2023/04/09 00:55:47;;;;;;;29.13;24.13;;;10.50;1.00;;;;;;5018113;28;20185;-90
2023/04/09 00:58:13;;;;;;;33.33;25.70;;;10.40;1.00;;;;;;5041188;28;20166;-89
2023/04/09 01:00:50;;;;;;;29.47;25.17;;;10.40;1.00;;;;;;5039983;28;20178;-89
2023/04/09 01:03:24;;;;;;;29.77;24.87;;;10.20;1.00;;;;;;5006830;28;20206;-89
2023/04/09 01:06:29;;;;;;;29.40;24.30;;;10.10;1.00;;;;;;5019507;28;20200;-95
2023/04/09 01:09:11;;;;;;;30.07;24.97;;;9.90;1.00;;;;;;5037104;28;20181;-93
2023/04/09 01:12:00;;;;;;;29.47;26.27;;;9.80;1.00;;;;;;5040249;28;20217;-90
2023/04/09 01:14:40;;;;;;;32.20;26.90;;;9.80;1.00;;;;;;5040560;28;20170;-91
2023/04/09 01:17:48;;;;;;;30.10;26.23;;;9.90;1.00;;;;;;5038855;28;20186;-96
2023/04/09 01:20:29;;;;;;;31.37;26.03;;;9.80;1.00;;;;;;5023213;28;20165;-89
2023/04/09 01:23:17;;;;;;;31.83;26.50;;;9.80;1.00;;;;;;5039416;28;20229;-96
2023/04/09 01:26:18;;;;;;;30.70;26.07;;;9.70;1.00;;;;;;5017681;28;20261;-90
2023/04/09 01:28:56;;;;;;;33.87;26.90;;;9.60;1.00;;;;;;5037214;28;20184;-94
2023/04/09 01:31:36;;;;;;;32.57;26.87;;;9.60;1.00;;;;;;5023512;28;20233;-91
2023/04/09 01:34:13;;;;;;;30.97;27.60;;;9.70;1.00;;;;;;5006762;28;20186;-91
2023/04/09 01:36:53;;;;;;;37.47;27.47;;;9.80;1.00;;;;;;5035297;28;20272;-91
2023/04/09 01:39:20;;;;;;;34.97;28.27;;;9.60;1.00;;;;;;5015341;28;20177;-91
2023/04/09 01:41:50;;;;;;;32.03;27.63;;;9.60;1.00;;;;;;5015832;28;20281;-91
2023/04/09 01:44:25;;;;;;;31.50;27.03;;;9.50;1.00;;;;;;5011924;28;20611;-91
2023/04/09 01:46:51;;;;;;;32.10;27.17;;;9.50;1.00;;;;;;5008961;28;20249;-91
2023/04/09 01:49:20;;;;;;;32.63;27.97;;;9.60;1.00;;;;;;5010903;28;20201;-91
2023/04/09 01:51:54;;;;;;;33.03;27.83;;;9.60;1.00;;;;;;4996903;28;20194;-90
2023/04/09 01:54:32;;;;;;;33.27;27.30;;;9.50;1.00;;;;;;4994264;28;20179;-91
2023/04/09 01:57:33;;;;;;;30.63;26.17;;;9.30;1.00;;;;;;5009158;28;20167;-91
2023/04/09 02:00:03;;;;;;;32.33;27.13;;;9.20;1.00;;;;;;5019380;28;20212;-91
2023/04/09 02:02:46;;;;;;;29.63;25.60;;;9.20;1.00;;;;;;5015245;28;20203;-90
2023/04/09 02:05:26;;;;;;;30.33;25.90;;;9.20;1.00;;;;;;4995208;28;20182;-91
2023/04/09 02:08:20;;;;;;;31.03;26.30;;;9.20;1.00;;;;;;4994563;28;20170;-91
2023/04/09 02:11:09;;;;;;;30.97;26.53;;;9.30;1.00;;;;;;4995131;28;20189;-91
2023/04/09 02:13:40;;;;;;;33.83;26.23;;;9.30;1.00;;;;;;5018373;28;20195;-89
2023/04/09 02:16:07;;;;;;;32.93;27.07;;;9.30;1.00;;;;;;5002259;28;20223;-91
2023/04/09 02:18:37;;;;;;;34.27;28.90;;;9.40;1.00;;;;;;4982898;28;20726;-92
2023/04/09 02:21:04;;;;;;;30.77;26.87;;;9.40;1.00;;;;;;4980973;28;20247;-95
2023/04/09 02:23:32;;;;;;;32.30;27.07;;;9.40;1.00;;;;;;5009815;28;20753;-90
2023/04/09 02:25:58;;;;;;;33.63;28.20;;;9.50;1.00;;;;;;4997543;28;20179;-93
2023/04/09 02:28:44;;;;;;;34.93;28.40;;;9.50;1.00;;;;;;5015094;28;20182;-92
2023/04/09 02:31:13;;;;;;;32.83;28.13;;;9.60;1.00;;;;;;4982315;28;20182;-95
2023/04/09 02:33:40;;;;;;;32.50;27.57;;;9.60;1.00;;;;;;5000242;28;20179;-94
2023/04/09 02:36:26;;;;;;;33.90;28.03;;;9.50;1.00;;;;;;5016492;28;20179;-96
2023/04/09 02:38:53;;;;;;;34.17;27.93;;;9.50;1.00;;;;;;5016831;28;20244;-96
2023/04/09 02:41:23;;;;;;;40.23;30.90;;;9.50;1.00;;;;;;5017617;28;20205;-96
2023/04/09 02:43:52;;;;;;;37.40;30.33;;;9.50;1.00;;;;;;5000833;28;20170;-92
2023/04/09 02:46:39;;;;;;;38.77;30.43;;;9.40;1.00;;;;;;5021207;28;20182;-91
2023/04/09 02:49:08;;;;;;;39.77;30.30;;;9.40;1.00;;;;;;5012830;28;20242;-92
2023/04/09 02:51:56;;;;;;;37.63;29.37;;;9.50;1.00;;;;;;5012336;28;20177;-91
2023/04/09 02:54:22;;;;;;;37.03;30.37;;;9.50;1.00;;;;;;5010618;28;20170;-93
2023/04/09 02:56:48;;;;;;;41.90;31.17;;;9.50;1.00;;;;;;5009287;28;20233;-91
2023/04/09 02:59:22;;;;;;;39.00;32.57;;;9.50;1.00;;;;;;5027073;28;20197;-92
2023/04/09 03:01:48;;;;;;;43.47;32.37;;;9.50;1.00;;;;;;4993017;28;20218;-92
2023/04/09 03:04:18;;;;;;;39.60;32.63;;;9.50;1.00;;;;;;5014668;28;20192;-91
2023/04/09 03:06:44;;;;;;;40.73;32.40;;;9.50;1.00;;;;;;5035121;28;20182;-92
2023/04/09 03:09:14;;;;;;;42.17;34.43;;;9.50;1.00;;;;;;4999376;28;20186;-92
2023/04/09 03:11:46;;;;;;;42.33;33.70;;;9.50;1.00;;;;;;5014852;28;20229;-92
2023/04/09 03:14:19;;;;;;;45.60;34.43;;;9.40;1.00;;;;;;5000953;28;20186;-91
2023/04/09 03:16:47;;;;;;;49.30;34.90;;;9.40;1.00;;;;;;5031230;28;20197;-92
2023/04/09 03:19:15;;;;;;;45.07;35.13;;;9.50;1.00;;;;;;4997874;28;20213;-91
2023/04/09 03:22:01;;;;;;;45.60;35.10;;;9.50;1.00;;;;;;5018421;28;20208;-91
2023/04/09 03:24:31;;;;;;;45.50;35.00;;;9.40;1.00;;;;;;5020217;28;20186;-91
2023/04/09 03:27:04;;;;;;;44.83;34.80;;;9.30;1.00;;;;;;5034591;28;20158;-96
2023/04/09 03:29:31;;;;;;;44.00;35.27;;;9.30;1.00;;;;;;5015014;28;20178;-91
2023/04/09 03:31:56;;;;;;;43.83;34.80;;;9.30;1.00;;;;;;5015632;28;20154;-95
2023/04/09 03:34:24;;;;;;;46.70;35.40;;;9.60;1.00;;;;;;5015600;28;20179;-92
2023/04/09 03:36:52;;;;;;;46.50;35.60;;;9.30;1.00;;;;;;5014746;28;20181;-93
2023/04/09 03:39:29;;;;;;;43.93;35.13;;;9.40;1.00;;;;;;5033029;28;20166;-96
2023/04/09 03:41:58;;;;;;;43.97;36.50;;;9.30;1.00;;;;;;5018991;28;20240;-89
2023/04/09 03:44:24;;;;;;;47.00;36.63;;;9.50;1.00;;;;;;5019139;28;20166;-92
2023/04/09 03:46:49;;;;;;;48.77;38.57;;;9.40;1.00;;;;;;5001138;28;20226;-96
2023/04/09 03:49:17;;;;;;;47.07;36.30;;;9.30;1.00;;;;;;5017342;28;20158;-91
2023/04/09 03:51:43;;;;;;;44.60;35.50;;;9.30;1.00;;;;;;5017764;28;20213;-94
2023/04/09 03:54:09;;;;;;;45.83;37.17;;;9.60;1.00;;;;;;5021740;28;20174;-95
2023/04/09 03:56:34;;;;;;;43.53;35.90;;;9.40;1.00;;;;;;5022883;28;20177;-95
2023/04/09 03:59:00;;;;;;;45.10;35.57;;;9.30;1.00;;;;;;5020769;28;20158;-94
2023/04/09 04:01:26;;;;;;;48.53;37.57;;;9.30;1.00;;;;;;5037162;28;20305;-96
2023/04/09 04:04:06;;;;;;;48.27;37.37;;;9.30;1.00;;;;;;5023355;28;20178;-93
2023/04/09 04:06:37;;;;;;;47.50;37.83;;;9.30;1.00;;;;;;5025348;28;20189;-91
2023/04/09 04:09:03;;;;;;;46.80;38.00;;;9.30;1.00;;;;;;5025298;28;20166;-91
2023/04/09 04:11:29;;;;;;;50.30;38.57;;;9.30;1.00;;;;;;5025208;28;20254;-91
2023/04/09 04:13:55;;;;;;;50.20;39.20;;;9.30;1.00;;;;;;5025113;28;20197;-91
2023/04/09 04:16:24;;;;;;;48.40;39.20;;;9.40;1.00;;;;;;5020469;28;20207;-90
2023/04/09 04:22:01;;;;;;;52.47;39.13;;;9.10;1.00;;;;;;5037360;28;20232;-93
2023/04/09 04:24:27;;;;;;;51.83;40.30;;;9.10;5.80;;;;;;5024462;28;20155;-91
2023/04/09 04:26:54;;;;;;;50.33;39.60;;;9.00;7.90;;;;;;5001011;28;20226;-90
2023/04/09 04:29:21;;;;;;;53.47;41.20;;;9.10;11.40;;;;;;5013327;28;20254;-91
2023/04/09 04:31:47;;;;;;;52.87;40.20;;;9.00;14.10;;;;;;4998980;28;20185;-91
2023/04/09 04:34:14;;;;;;;50.70;39.23;;;9.00;14.30;;;;;;5024901;28;20170;-91
2023/04/09 04:36:43;;;;;;;52.47;39.60;;;9.00;15.00;;;;;;5018406;28;20254;-93
2023/04/09 04:39:15;;;;;;;50.80;39.80;;;9.00;15.40;;;;;;5012468;28;20174;-91
2023/04/09 04:41:40;;;;;;;53.33;40.70;;;9.00;17.80;;;;;;5010413;28;20261;-93
2023/04/09 04:44:12;;;;;;;50.67;39.23;;;9.10;17.80;;;;;;5012875;28;20193;-91
2023/04/09 04:46:37;;;;;;;52.63;41.03;;;9.10;16.40;;;;;;5010307;28;20241;-91
2023/04/09 04:49:03;;;;;;;47.93;39.30;;;9.10;16.80;;;;;;5014718;28;20194;-92
2023/04/09 04:51:32;;;;;;;50.63;40.90;;;9.40;15.60;;;;;;4996502;28;20205;-92
2023/04/09 04:53:59;;;;;;;50.13;40.57;;;9.30;11.80;;;;;;5028222;28;20256;-92
2023/04/09 04:56:26;;;;;;;52.53;41.40;;;9.30;10.20;;;;;;5014172;28;20216;-92
2023/04/09 04:58:52;;;;;;;50.20;39.50;;;9.30;10.20;;;;;;5013909;28;20178;-92
2023/04/09 05:01:21;;;;;;;57.03;43.20;;;9.20;9.30;;;;;;5032308;28;20269;-92
2023/04/09 05:03:54;;;;;;;52.07;40.67;;;9.20;9.70;;;;;;5014191;28;20670;-92
2023/04/09 05:06:19;;;;;;;51.47;40.47;;;9.10;10.30;;;;;;5013143;28;20171;-92
2023/04/09 05:08:46;;;;;;;51.77;39.93;;;9.20;12.50;;;;;;5031921;28;20170;-96
2023/04/09 05:11:13;;;;;;;51.90;40.23;;;9.10;14.40;;;;;;5013314;28;20265;-91
2023/04/09 05:13:41;;;;;;;52.83;42.00;;;9.10;15.50;;;;;;5031497;28;20536;-94
2023/04/09 05:16:07;;;;;;;51.93;40.37;;;9.00;15.90;;;;;;5010693;28;20174;-92
2023/04/09 05:18:36;;;;;;;56.70;40.87;;;9.10;16.80;;;;;;5013575;28;20182;-94
2023/04/09 05:21:01;;;;;;;54.80;40.87;;;9.00;15.00;;;;;;5017750;28;20233;-91
2023/04/09 05:23:27;;;;;;;54.70;42.60;;;8.90;15.70;;;;;;5018134;28;20566;-92
2023/04/09 05:25:53;;;;;;;52.33;40.17;;;8.90;17.40;;;;;;5021970;28;20167;-90
2023/04/09 05:28:19;;;;;;;52.23;40.47;;;9.20;16.50;;;;;;5023490;28;20174;-95
2023/04/09 05:30:50;;;;;;;54.30;41.70;;;9.10;15.20;;;;;;5020030;28;20242;-91
2023/04/09 05:33:16;;;;;;;52.00;40.53;;;9.10;13.40;;;;;;5018524;28;20197;-91
2023/04/09 05:35:52;;;;;;;53.30;40.90;;;9.10;12.30;;;;;;5033041;28;20178;-92
2023/04/09 05:38:18;;;;;;;52.80;40.70;;;9.30;10.00;;;;;;5016618;28;20166;-92
2023/04/09 05:40:44;;;;;;;56.50;41.03;;;9.30;7.50;;;;;;5023317;28;20197;-92
2023/04/09 05:43:13;;;;;;;50.63;40.20;;;9.40;6.70;;;;;;5023132;28;20194;-90
2023/04/09 05:45:39;;;;;;;48.97;40.47;;;9.40;2.00;;;;;;5022306;28;20266;-91
2023/04/09 05:48:14;;;;;;;49.77;39.63;;;9.40;1.00;;;;;;5016659;28;20190;-90
2023/04/09 05:50:39;;;;;;;51.50;41.20;;;9.50;1.00;;;;;;5017191;28;20200;-94
2023/04/09 05:53:07;;;;;;;53.90;40.83;;;9.50;1.00;;;;;;5017436;28;20178;-93
2023/04/09 05:55:34;;;;;;;53.03;40.43;;;9.40;1.00;;;;;;5035756;28;20187;-92
2023/04/09 05:58:00;;;;;;;52.27;40.70;;;9.30;2.20;;;;;;5017955;28;20210;-94
2023/04/09 06:00:31;;;;;;;49.03;39.53;;;9.40;6.70;;;;;;5034624;28;20182;-96
2023/04/09 06:02:57;;;;;;;50.63;39.77;;;9.30;8.90;;;;;;5013218;28;20236;-92
2023/04/09 06:05:22;;;;;;;48.47;39.03;;;9.30;8.50;;;;;;5018292;28;20210;-91
2023/04/09 06:07:50;;;;;;;49.23;39.07;;;9.10;7.90;;;;;;4991025;28;20169;-90
2023/04/09 06:10:20;;;;;;;50.07;38.87;;;9.40;8.60;;;;;;5016175;28;20170;-91
2023/04/09 06:12:49;;;;;;;48.30;37.23;;;9.30;8.60;;;;;;5015948;28;20221;-91
2023/04/09 06:15:30;;;;;;;50.90;38.17;;;9.10;12.20;;;;;;5016201;28;20158;-89
2023/04/09 06:17:55;;;;;;;51.10;39.00;;;9.10;15.50;;;;;;5020944;28;20238;-91
2023/04/09 06:20:25;;;;;;;47.83;38.33;;;9.20;16.70;;;;;;5037515;28;20264;-90
2023/04/09 06:22:52;;;;;;;49.33;40.83;;;9.40;15.20;;;;;;5022385;28;20194;-90
2023/04/09 06:25:24;;;;;;;54.17;40.60;;;9.70;11.70;;;;;;5020513;28;20171;-94
2023/04/09 06:27:49;;;;;;;46.83;38.40;;;9.80;6.30;;;;;;5019629;28;20181;-91
2023/04/09 06:30:19;;;;;;;47.87;39.43;;;10.00;2.50;;;;;;5038350;28;20151;-90
2023/04/09 06:33:05;;;;;;;48.40;39.37;;;10.20;1.00;;;;;;5021767;28;20205;-90
2023/04/09 06:35:37;;;;;;;49.23;38.20;;;10.40;1.00;;;;;;5037457;28;20177;-90
2023/04/09 06:38:02;;;;;;;43.37;36.70;;;10.60;1.00;;;;;;5037045;28;20168;-90
2023/04/09 06:40:35;;;;;;;45.37;35.87;;;10.40;1.00;;;;;;5020841;28;20154;-91
2023/04/09 06:43:14;;;;;;;45.83;36.17;;;10.40;1.00;;;;;;5006721;28;20190;-89
2023/04/09 06:45:39;;;;;;;44.17;35.80;;;10.40;1.00;;;;;;5021670;28;20174;-93
2023/04/09 06:48:23;;;;;;;44.77;36.10;;;10.20;1.00;;;;;;5021885;28;20204;-90
2023/04/09 06:50:49;;;;;;;48.30;37.03;;;10.30;1.00;;;;;;5021069;28;20185;-90
2023/04/09 06:53:16;;;;;;;46.47;36.57;;;10.30;1.00;;;;;;5038829;28;20225;-91
2023/04/09 06:55:47;;;;;;;47.00;36.93;;;10.30;1.00;;;;;;5035874;28;20182;-91
2023/04/09 06:58:21;;;;;;;48.53;37.40;;;10.30;1.00;;;;;;5016901;28;20186;-90
2023/04/09 07:01:25;;;;;;;42.90;35.60;;;10.40;1.00;;;;;;5031559;28;20181;-91
2023/04/09 07:04:12;;;;;;;46.10;36.90;;;10.60;1.00;;;;;;5015388;28;20174;-91
2023/04/09 07:06:40;;;;;;;47.03;36.73;;;10.70;1.00;;;;;;5014468;28;20162;-91
2023/04/09 07:09:43;;;;;;;44.83;35.20;;;10.70;1.00;;;;;;5016352;28;20198;-93
2023/04/09 07:12:09;;;;;;;46.20;35.67;;;10.80;1.00;;;;;;5029638;28;20256;-93
2023/04/09 07:14:38;;;;;;;45.00;34.40;;;10.90;1.00;;;;;;5011421;28;20178;-92
2023/04/09 07:17:04;;;;;;;45.97;34.80;;;10.80;1.00;;;;;;5012951;28;20253;-90
2023/04/09 07:19:32;;;;;;;43.37;35.70;;;10.70;1.00;;;;;;5017487;28;20201;-89
2023/04/09 07:22:23;;;;;;;47.40;36.90;;;10.80;1.00;;;;;;5034810;28;20226;-90
2023/04/09 07:25:06;;;;;;;40.40;34.30;;;11.10;1.00;;;;;;5032669;28;20158;-92
2023/04/09 07:27:58;;;;;;;41.63;33.47;;;11.50;1.00;;;;;;5013424;28;20253;-90
2023/04/09 07:30:26;;;;;;;43.13;34.13;;;11.90;1.00;;;;;;5016489;28;20182;-94
2023/04/09 07:33:14;;;;;;;40.83;33.97;;;11.80;1.00;;;;;;5034764;28;20175;-90
2023/04/09 07:35:40;;;;;;;39.77;32.13;;;12.00;1.00;;;;;;5003769;28;20172;-89
2023/04/09 07:38:09;;;;;;;41.67;33.97;;;12.20;1.00;;;;;;5005273;28;20295;-90
2023/04/09 07:40:36;;;;;;;37.57;32.40;;;12.30;1.00;;;;;;5002581;28;20169;-90
2023/04/09 07:43:02;;;;;;;42.53;34.17;;;12.40;1.00;;;;;;5005152;28;20727;-90
2023/04/09 07:45:28;;;;;;;40.10;33.60;;;12.70;1.00;;;;;;5012053;28;20156;-89
2023/04/09 07:48:03;;;;;;;42.43;34.27;;;12.70;1.00;;;;;;5017459;28;20189;-89
2023/04/09 07:50:31;;;;;;;41.73;33.80;;;12.80;1.00;;;;;;5020569;28;20201;-89
2023/04/09 07:52:57;;;;;;;41.27;33.73;;;12.80;1.00;;;;;;5010794;28;20184;-89
2023/04/09 07:55:23;;;;;;;38.03;30.80;;;12.80;1.00;;;;;;4991919;28;20186;-89
2023/04/09 07:57:52;;;;;;;41.17;32.33;;;12.80;1.00;;;;;;5004174;28;20245;-89
2023/04/09 08:00:18;;;;;;;37.97;32.00;;;12.70;1.00;;;;;;5017460;28;20170;-88
2023/04/09 08:02:48;;;;;;;38.03;32.03;;;12.80;1.00;;;;;;5018591;28;20239;-89
2023/04/09 08:05:13;;;;;;;37.60;31.57;;;12.90;1.00;;;;;;5006687;28;20602;-89
2023/04/09 08:07:40;;;;;;;37.70;30.33;;;13.10;1.00;;;;;;5007939;28;20186;-88
2023/04/09 08:10:07;;;;;;;35.70;29.57;;;13.20;1.00;;;;;;5016140;28;20198;-88
2023/04/09 08:12:36;;;;;;;35.00;28.60;;;13.30;1.00;;;;;;5003165;28;20699;-88
2023/04/09 08:15:02;;;;;;;33.17;27.23;;;13.20;1.00;;;;;;4999486;28;20166;-88
2023/04/09 08:17:29;;;;;;;35.90;29.07;;;13.40;1.00;;;;;;5000999;28;20176;-86
2023/04/09 08:19:55;;;;;;;31.70;25.93;;;13.60;1.00;;;;;;4999424;28;20228;-88
2023/04/09 08:22:28;;;;;;;35.10;27.37;;;13.30;1.00;;;;;;5006688;28;20204;-88
2023/04/09 08:25:08;;;;;;;33.40;26.33;;;13.10;1.00;;;;;;5010157;28;20189;-87
2023/04/09 08:27:40;;;;;;;32.63;26.73;;;13.10;1.00;;;;;;5013123;28;20241;-89
2023/04/09 08:32:48;;;;;;;32.17;26.03;;;13.20;1.00;;;;;;5087208;23;20226;-86
2023/04/09 08:35:58;;;;;;;;;;;;;;;;;;;;;
2023/04/09 08:38:33;;;;;;;33.73;26.00;;;13.30;1.00;;;;;;4971687;28;20225;-88
2023/04/09 08:41:07;;;;;;;31.43;23.90;;;13.50;1.00;;;;;;5022311;28;20185;-89
2023/04/09 08:44:06;;;;;;;;;;;;;;;;;;;;;
2023/04/09 08:46:40;;;;;;;29.80;25.07;;;13.50;1.00;;;;;;5014259;28;20260;-91
2023/04/09 08:49:09;;;;;;;30.57;25.67;;;13.60;1.00;;;;;;5032136;28;20257;-86
2023/04/09 08:51:35;;;;;;;27.50;22.73;;;13.70;1.00;;;;;;5004163;28;20176;-88
2023/04/09 08:54:28;;;;;;;28.23;23.50;;;13.70;1.00;;;;;;5015159;28;20187;-87
2023/04/09 08:57:06;;;;;;;26.10;22.37;;;13.60;1.00;;;;;;5039368;28;20181;-87
2023/04/09 08:59:57;;;;;;;30.50;24.53;;;13.60;1.00;;;;;;4997038;28;20211;-87
2023/04/09 09:02:58;;;;;;;30.53;24.63;;;13.70;1.00;;;;;;5029536;28;20232;-89
2023/04/09 09:05:58;;;;;;;29.77;24.07;;;13.80;1.00;;;;;;5020418;28;20203;-88
2023/04/09 09:09:01;;;;;;;27.80;22.87;;;13.70;1.00;;;;;;5036448;28;20242;-90
2023/04/09 09:11:52;;;;;;;28.27;22.23;;;13.70;1.00;;;;;;5035443;28;20279;-87
2023/04/09 09:14:42;;;;;;;28.77;24.13;;;13.90;1.00;;;;;;5015893;28;20185;-86
2023/04/09 09:17:07;;;;;;;29.57;23.50;;;14.10;1.00;;;;;;5018354;28;20208;-88
2023/04/09 09:19:36;;;;;;;26.70;22.97;;;14.30;1.00;;;;;;5021145;28;20170;-87
2023/04/09 09:22:12;;;;;;;30.33;22.27;;;14.30;1.00;;;;;;5024050;28;20221;-88
2023/04/09 09:24:53;;;;;;;27.83;23.03;;;14.70;1.00;;;;;;5039642;28;20209;-90
2023/04/09 09:27:35;;;;;;;25.90;23.10;;;14.80;1.00;;;;;;5005846;28;20154;-91
2023/04/09 09:30:04;;;;;;;26.93;22.87;;;14.80;1.00;;;;;;5038022;28;20169;-88
2023/04/09 09:33:10;;;;;;;26.10;22.43;;;14.70;99.90;;;;;;5023164;28;20168;-86
2023/04/09 09:35:56;;;;;;;27.07;23.57;;;14.80;99.90;;;;;;5002957;28;20275;-86
2023/04/09 09:38:34;;;;;;;29.13;25.27;;;14.70;99.90;;;;;;5000364;28;20178;-86
2023/04/09 09:41:16;;;;;;;28.80;23.27;;;14.10;1.00;;;;;;5012329;28;20255;-87
2023/04/09 09:43:42;;;;;;;29.50;24.33;;;14.10;1.00;;;;;;4980549;28;20226;-87
2023/04/09 09:46:39;;;;;;;29.60;23.73;;;14.10;1.00;;;;;;5011316;28;20271;-89
2023/04/09 09:49:23;;;;;;;26.53;21.27;;;14.10;1.00;;;;;;5010288;28;20176;-87
2023/04/09 09:51:55;;;;;;;25.43;22.73;;;14.30;1.00;;;;;;4995695;28;20186;-86
2023/04/09 09:54:54;;;;;;;29.90;23.90;;;14.20;1.00;;;;;;4994519;28;20204;-86
2023/04/09 09:57:23;;;;;;;28.67;23.90;;;14.40;1.00;;;;;;4998708;28;20175;-84
2023/04/09 10:00:24;;;;;;;25.43;22.60;;;14.50;1.00;;;;;;5011426;28;20170;-87
2023/04/09 10:03:16;;;;;;;26.47;22.20;;;14.70;1.00;;;;;;5013283;28;20277;-87
2023/04/09 10:05:42;;;;;;;26.97;21.67;;;14.80;1.00;;;;;;4995747;28;20182;-88
2023/04/09 10:08:17;;;;;;;24.50;20.30;;;15.00;99.90;;;;;;5014527;28;20239;-87
2023/04/09 10:11:06;;;;;;;26.23;21.33;;;15.20;99.90;;;;;;4999192;28;20151;-86
2023/04/09 10:13:47;;;;;;;25.50;20.53;;;15.40;99.90;;;;;;5013259;28;20271;-87
2023/04/09 10:16:14;;;;;;;24.40;20.53;;;15.40;99.90;;;;;;5014303;28;20155;-86
2023/04/09 10:18:42;;;;;;;24.80;21.07;;;15.60;99.90;;;;;;4984419;28;20187;-86
2023/04/09 10:21:19;;;;;;;22.03;19.53;;;15.70;99.90;;;;;;4999018;28;20251;-86
2023/04/09 10:23:55;;;;;;;21.70;19.40;;;15.60;99.90;;;;;;5016217;28;20191;-85
2023/04/09 10:26:29;;;;;;;25.73;21.00;;;15.90;99.90;;;;;;5001658;28;20250;-85
2023/04/09 10:29:25;;;;;;;23.60;19.97;;;15.80;99.90;;;;;;5019199;28;20174;-85
2023/04/09 10:32:06;;;;;;;24.47;20.27;;;15.80;99.90;;;;;;5017004;28;20226;-87
2023/04/09 10:34:41;;;;;;;22.90;19.23;;;15.90;99.90;;;;;;5011900;28;20201;-86
2023/04/09 10:37:17;;;;;;;24.77;19.97;;;16.10;99.90;;;;;;5003443;28;20177;-89
2023/04/09 10:39:57;;;;;;;23.63;19.87;;;16.00;99.90;;;;;;5033868;28;20162;-88
2023/04/09 10:42:45;;;;;;;24.00;20.20;;;16.10;99.90;;;;;;5018666;28;20222;-86
2023/04/09 10:45:16;;;;;;;24.70;21.67;;;16.20;99.90;;;;;;5035800;28;20186;-88
2023/04/09 10:47:45;;;;;;;24.20;21.27;;;16.40;99.90;;;;;;5003952;28;20227;-87
2023/04/09 10:50:28;;;;;;;22.30;19.90;;;16.30;99.90;;;;;;5021919;28;20166;-88
2023/04/09 10:53:23;;;;;;;22.47;20.07;;;16.50;99.90;;;;;;5021655;28;20180;-86
2023/04/09 10:56:16;;;;;;;23.60;20.00;;;16.50;99.90;;;;;;5020126;28;20220;-88
2023/04/09 10:58:53;;;;;;;24.03;20.13;;;16.60;99.90;;;;;;5003543;28;20195;-86
2023/04/09 11:01:30;;;;;;;25.80;21.07;;;16.70;99.90;;;;;;5036218;28;20503;-92
2023/04/09 11:05:06;;;;;;;25.17;21.17;;;16.30;99.90;;;;;;5037595;28;20165;-89
2023/04/09 11:07:38;;;;;;;23.50;19.70;;;16.40;99.90;;;;;;5019452;28;20193;-86
2023/04/09 11:10:22;;;;;;;25.23;20.00;;;16.30;99.90;;;;;;5018896;28;20199;-87
2023/04/09 11:12:57;;;;;;;22.43;19.07;;;16.50;99.90;;;;;;5020011;28;20196;-86
2023/04/09 11:15:48;;;;;;;22.33;18.93;;;16.60;99.90;;;;;;5036647;28;20185;-85
2023/04/09 11:18:41;;;;;;;23.20;18.63;;;16.90;99.90;;;;;;5010754;28;20188;-88
2023/04/09 11:21:11;;;;;;;22.33;18.50;;;17.00;99.90;;;;;;5033853;28;20235;-89
2023/04/09 11:24:12;;;;;;;20.23;17.23;;;17.00;99.90;;;;;;5001309;28;20270;-86
2023/04/09 11:26:39;;;;;;;20.10;17.33;;;16.10;99.90;;;;;;5009689;28;20186;-87
2023/04/09 11:29:12;;;;;;;20.73;18.07;;;15.80;99.90;;;;;;5005383;28;20158;-87
2023/04/09 11:31:45;;;;;;;21.30;18.93;;;15.90;99.90;;;;;;5075358;23;20229;-86
2023/04/09 11:34:16;;;;;;;22.40;19.40;;;16.20;99.90;;;;;;5018436;28;20179;-87
2023/04/09 11:36:47;;;;;;;22.27;18.20;;;16.40;99.90;;;;;;4999558;28;20261;-88
2023/04/09 11:47:00;;;;;;;21.23;17.33;;;16.80;99.90;;;;;;5035857;28;20214;-86
2023/04/09 11:50:07;;;;;;;22.17;18.40;;;17.10;99.90;;;;;;5019475;28;20198;-89
2023/04/09 11:52:36;;;;;;;18.60;16.47;;;17.20;97.10;;;;;;5013243;28;20173;-89
2023/04/09 11:55:11;;;;;;;20.40;17.13;;;16.80;99.90;;;;;;5015067;28;20181;-94
2023/04/09 11:58:07;;;;;;;19.50;16.53;;;16.70;99.90;;;;;;5021069;28;20187;-91
2023/04/09 12:00:39;;;;;;;18.43;15.90;;;17.00;99.90;;;;;;5008364;28;20272;-86
2023/04/09 12:03:05;;;;;;;20.53;16.00;;;17.30;99.90;;;;;;4999684;28;20228;-85
2023/04/09 12:05:35;;;;;;;18.70;16.70;;;17.30;40.10;;;;;;5003423;28;20203;-86
2023/04/09 12:08:07;;;;;;;20.17;16.37;;;17.50;1.00;;;;;;5004190;28;20209;-88
2023/04/09 12:10:37;;;;;;;17.47;15.53;;;17.60;1.00;;;;;;5024582;28;20170;-85
2023/04/09 12:13:16;;;;;;;17.00;15.13;;;17.50;1.00;;;;;;5020381;28;20177;-87
2023/04/09 12:15:45;;;;;;;16.40;14.53;;;17.60;1.00;;;;;;5024782;28;20234;-85
2023/04/09 12:18:14;;;;;;;15.90;14.20;;;17.70;1.00;;;;;;5021071;28;20184;-87
2023/04/09 12:21:07;;;;;;;19.00;13.83;;;17.80;1.00;;;;;;5002251;28;20189;-86
2023/04/09 12:23:34;;;;;;;14.50;12.93;;;17.70;1.00;;;;;;5015690;28;20213;-87
2023/04/09 12:26:05;;;;;;;15.07;13.47;;;17.70;1.00;;;;;;5015925;28;20186;-86
2023/04/09 12:29:28;;;;;;;15.90;13.40;;;17.60;1.00;;;;;;5035627;28;20174;-91
2023/04/09 12:31:54;;;;;;;17.67;13.47;;;17.80;1.00;;;;;;5016068;28;20189;-90
2023/04/09 12:34:32;;;;;;;18.03;14.53;;;17.90;99.90;;;;;;5038291;28;20187;-86
2023/04/09 12:37:00;;;;;;;17.37;14.03;;;18.00;99.90;;;;;;5033872;28;20267;-88
2023/04/09 12:39:26;;;;;;;17.47;14.83;;;18.10;99.90;;;;;;5017368;28;20180;-87
2023/04/09 12:42:19;;;;;;;18.50;13.17;;;17.90;99.90;;;;;;5011742;28;20187;-87
2023/04/09 12:44:54;;;;;;;14.37;12.40;;;17.60;99.90;;;;;;5014421;28;20190;-92
2023/04/09 12:47:21;;;;;;;13.70;12.07;;;17.70;99.90;;;;;;5004075;28;20262;-86
2023/04/09 12:49:52;;;;;;;16.40;12.30;;;17.90;99.90;;;;;;5012046;28;20177;-87
2023/04/09 12:52:21;;;;;;;15.73;12.33;;;17.60;99.90;;;;;;5004366;28;20186;-86
2023/04/09 12:54:50;;;;;;;15.37;13.73;;;17.30;1.00;;;;;;5040848;28;20170;-86
2023/04/09 12:57:45;;;;;;;15.23;13.27;;;17.20;1.00;;;;;;5039031;28;20185;-86
2023/04/09 13:00:22;;;;;;;13.60;12.13;;;17.70;1.00;;;;;;5023095;28;20220;-85
2023/04/09 13:02:52;;;;;;;13.50;10.87;;;18.20;99.90;;;;;;5039649;28;20211;-87
2023/04/09 13:05:30;;;;;;;13.50;11.07;;;18.40;1.00;;;;;;5040785;28;20163;-85
2023/04/09 13:08:13;;;;;;;13.63;11.40;;;18.70;1.00;;;;;;5022842;28;20170;-86
2023/04/09 13:11:04;;;;;;;11.90;10.40;;;18.30;1.00;;;;;;5021355;28;20179;-89
2023/04/09 13:13:58;;;;;;;12.23;9.77;;;18.60;1.00;;;;;;5026606;28;20316;-85
2023/04/09 13:16:27;;;;;;;10.93;9.73;;;18.80;1.00;;;;;;5022624;28;20177;-87
2023/04/09 13:18:55;;;;;;;11.57;10.00;;;18.80;99.90;;;;;;5022644;28;20197;-85
2023/04/09 13:21:25;;;;;;;12.80;10.23;;;18.90;11.70;;;;;;5020126;28;20192;-85
2023/04/09 13:23:59;;;;;;;13.07;10.73;;;18.90;99.90;;;;;;5033363;28;20194;-86
2023/04/09 13:26:30;;;;;;;11.33;9.43;;;18.80;1.00;;;;;;5035289;28;20199;-85
2023/04/09 13:29:01;;;;;;;12.40;10.33;;;19.00;99.90;;;;;;5035238;28;20189;-87
2023/04/09 13:31:26;;;;;;;11.33;9.97;;;19.30;83.60;;;;;;5019306;28;20185;-88
2023/04/09 13:33:57;;;;;;;11.13;8.73;;;19.20;1.00;;;;;;5035554;28;20236;-91